Averill Park, NY

11:56 AM EDT on August 27, 2014 (GMT -0400)
Harriman And West | Change Station
CLOSE
Current Station
Airport
Location: North Adams,
Elevation: 653 ft
Nearby Weather Stations

Elev 653 ft 42.70 °N, 73.17 °W | Updated 4 minutes ago

Mostly Cloudy
Mostly Cloudy
80 °F
Feels Like 82 °F
N
6
Wind Variable Wind from SSW

Today
High -- | Low -- °F
--% Chance of Precip.
Yesterday
High -- | Low -- °F
Precip. -- in
6:13 AM 7:36 PM
Waxing Crescent, 4% visible
Pressure 29.97 in
Visibility 10.0 miles
Clouds Mostly Cloudy 3200 ft
Heat Index 82 °F
Dew Point 66 °F
Humidity 62%
Rainfall 0.00 in
Snow Depth Not available.
UV 5 out of 12
Pollen 9.40 out of 12
PM2.5 Moderate
Flu Activity Not available.
METAR KAQW 271552Z AUTO 21005KT 10SM BKN032 27/19 A2997 RMK AO2 SLP148 T02670189

More Conditions Fewer Conditions

Pressure 29.97 in
Visibility 10.0 miles
Clouds Mostly Cloudy 3200 ft
Heat Index 82 °F
Dew Point 66 °F
Humidity 62%
Rainfall 0.00 in
Snow Depth Not available.
UV 5 out of 12
Pollen 9.40 out of 12
PM2.5 Moderate
Flu Activity Not available.
METAR KAQW 271552Z AUTO 21005KT 10SM BKN032 27/19 A2997 RMK AO2 SLP148 T02670189

More Conditions Fewer Conditions

10-Day Weather Forecast

Almanac

Astronomy

Aug. 27, 2014 Rise Set
Actual Time 6:13 AM EDT 7:36 PM EDT
Civil Twilight 5:44 AM EDT 8:06 PM EDT
Nautical Twilight 5:08 AM EDT 8:41 PM EDT
Astronomical Twilight 4:31 AM EDT 9:18 PM EDT
Moon 8:10 AM EDT 8:23 PM EDT
Length of Visible Light 14h 22m
Length of Day
13h 23m
Tomorrow will be 2m 43s shorter.
Waxing Crescent, 4% of the Moon is Illuminated
Today
Waxing Crescent
Sep 2
First Quarter
Sep 8
Full
Sep 15
Last Quarter
Sep 24
New

Today's Extremes

State Highs State Lows

Community

WunderPhotos

Upload Photos

1,747,711 photos uploaded!

Nearby

Air Quality

  Air Quality AQ Index Pollutant
Yesterday Moderate
OZONE
Yesterday Moderate
PM2.5
Current Moderate
PM2.5
Wednesday Good
OZONE
Wednesday Good
PM2.5

Snow Depth

Station Depth Elevation
No new snow has been reported.

Earthquake Activity

City Distance Mag. Time & Date
No recent earthquake activity has been reported nearby.
Minimum magnitude displayed is 2.5.

Coastal Water Temperatures

Place Temperature
No Stations Reporting

Nearby Weather Stations